sensor_id;sensor_type;location;lat;lon;timestamp;temperature;humidity
10419;DHT22;5256;48.728;9.140;2023-07-30T00:01:55;16.70;99.90
10419;DHT22;5256;48.728;9.140;2023-07-30T00:04:20;16.80;99.90
10419;DHT22;5256;48.728;9.140;2023-07-30T00:06:46;16.70;99.90
10419;DHT22;5256;48.728;9.140;2023-07-30T00:09:12;16.60;99.90
10419;DHT22;5256;48.728;9.140;2023-07-30T00:11:37;16.60;99.90
10419;DHT22;5256;48.728;9.140;2023-07-30T00:14:03;16.60;99.90
10419;DHT22;5256;48.728;9.140;2023-07-30T00:16:29;16.60;99.90
10419;DHT22;5256;48.728;9.140;2023-07-30T00:18:54;16.50;99.90
10419;DHT22;5256;48.728;9.140;2023-07-30T00:21:20;16.40;99.90
10419;DHT22;5256;48.728;9.140;2023-07-30T00:23:45;16.40;99.90
10419;DHT22;5256;48.728;9.140;2023-07-30T00:26:11;16.40;99.90
10419;DHT22;5256;48.728;9.140;2023-07-30T00:28:37;16.30;99.90
10419;DHT22;5256;48.728;9.140;2023-07-30T00:31:02;16.30;99.90
10419;DHT22;5256;48.728;9.140;2023-07-30T00:33:28;16.30;99.90
10419;DHT22;5256;48.728;9.140;2023-07-30T00:35:53;16.40;99.90
10419;DHT22;5256;48.728;9.140;2023-07-30T00:38:19;16.50;99.90
10419;DHT22;5256;48.728;9.140;2023-07-30T00:40:45;16.60;99.90
10419;DHT22;5256;48.728;9.140;2023-07-30T00:43:11;16.50;99.90
10419;DHT22;5256;48.728;9.140;2023-07-30T00:45:39;16.40;99.90
10419;DHT22;5256;48.728;9.140;2023-07-30T00:48:05;16.30;99.90
10419;DHT22;5256;48.728;9.140;2023-07-30T00:50:31;16.30;99.90
10419;DHT22;5256;48.728;9.140;2023-07-30T00:52:57;16.30;99.90
10419;DHT22;5256;48.728;9.140;2023-07-30T00:55:23;16.40;99.90
10419;DHT22;5256;48.728;9.140;2023-07-30T00:57:48;16.50;99.90
10419;DHT22;5256;48.728;9.140;2023-07-30T01:00:15;16.50;99.90
10419;DHT22;5256;48.728;9.140;2023-07-30T01:02:40;16.60;99.90
10419;DHT22;5256;48.728;9.140;2023-07-30T01:05:06;16.60;99.90
10419;DHT22;5256;48.728;9.140;2023-07-30T01:07:32;16.60;99.90
10419;DHT22;5256;48.728;9.140;2023-07-30T01:10:01;16.60;99.90
10419;DHT22;5256;48.728;9.140;2023-07-30T01:12:29;16.60;99.90
10419;DHT22;5256;48.728;9.140;2023-07-30T01:14:56;16.60;99.90
10419;DHT22;5256;48.728;9.140;2023-07-30T01:17:23;16.70;99.90
10419;DHT22;5256;48.728;9.140;2023-07-30T01:19:48;16.70;99.90
10419;DHT22;5256;48.728;9.140;2023-07-30T01:22:20;16.60;99.90
10419;DHT22;5256;48.728;9.140;2023-07-30T01:24:46;16.60;99.90
10419;DHT22;5256;48.728;9.140;2023-07-30T01:27:16;16.60;99.90
10419;DHT22;5256;48.728;9.140;2023-07-30T01:32:13;16.60;99.90
10419;DHT22;5256;48.728;9.140;2023-07-30T01:34:40;16.70;99.90
10419;DHT22;5256;48.728;9.140;2023-07-30T01:37:09;16.70;99.90
10419;DHT22;5256;48.728;9.140;2023-07-30T01:39:37;16.80;99.90
10419;DHT22;5256;48.728;9.140;2023-07-30T01:42:04;16.80;99.90
10419;DHT22;5256;48.728;9.140;2023-07-30T01:44:29;16.70;99.90
10419;DHT22;5256;48.728;9.140;2023-07-30T01:46:55;16.70;99.90
10419;DHT22;5256;48.728;9.140;2023-07-30T01:49:20;16.60;99.90
10419;DHT22;5256;48.728;9.140;2023-07-30T01:51:46;16.50;99.90
10419;DHT22;5256;48.728;9.140;2023-07-30T01:54:11;16.40;99.90
10419;DHT22;5256;48.728;9.140;2023-07-30T01:56:37;16.30;99.90
10419;DHT22;5256;48.728;9.140;2023-07-30T01:59:02;16.20;99.90
10419;DHT22;5256;48.728;9.140;2023-07-30T02:01:28;16.20;99.90
10419;DHT22;5256;48.728;9.140;2023-07-30T02:03:53;16.10;99.90
10419;DHT22;5256;48.728;9.140;2023-07-30T02:06:19;16.10;99.90
10419;DHT22;5256;48.728;9.140;2023-07-30T02:08:44;16.10;99.90
10419;DHT22;5256;48.728;9.140;2023-07-30T02:11:10;16.10;99.90
10419;DHT22;5256;48.728;9.140;2023-07-30T02:13:36;16.10;99.90
10419;DHT22;5256;48.728;9.140;2023-07-30T02:16:01;16.10;99.90
10419;DHT22;5256;48.728;9.140;2023-07-30T02:18:27;16.10;99.90
10419;DHT22;5256;48.728;9.140;2023-07-30T02:20:52;16.10;99.90
10419;DHT22;5256;48.728;9.140;2023-07-30T02:23:18;16.10;99.90
10419;DHT22;5256;48.728;9.140;2023-07-30T02:25:43;16.00;99.90
10419;DHT22;5256;48.728;9.140;2023-07-30T02:28:09;16.00;99.90
10419;DHT22;5256;48.728;9.140;2023-07-30T02:30:35;16.00;99.90
10419;DHT22;5256;48.728;9.140;2023-07-30T02:33:00;16.00;99.90
10419;DHT22;5256;48.728;9.140;2023-07-30T02:35:26;16.10;99.90
10419;DHT22;5256;48.728;9.140;2023-07-30T02:37:52;16.10;99.90
10419;DHT22;5256;48.728;9.140;2023-07-30T02:40:17;16.20;99.90
10419;DHT22;5256;48.728;9.140;2023-07-30T02:42:43;16.20;99.90
10419;DHT22;5256;48.728;9.140;2023-07-30T02:45:08;16.20;99.90
10419;DHT22;5256;48.728;9.140;2023-07-30T02:47:34;16.20;99.90
10419;DHT22;5256;48.728;9.140;2023-07-30T02:50:00;16.30;99.90
10419;DHT22;5256;48.728;9.140;2023-07-30T02:52:25;16.30;99.90
10419;DHT22;5256;48.728;9.140;2023-07-30T02:54:51;16.30;99.90
10419;DHT22;5256;48.728;9.140;2023-07-30T02:57:16;16.20;99.90
10419;DHT22;5256;48.728;9.140;2023-07-30T02:59:42;16.10;99.90
10419;DHT22;5256;48.728;9.140;2023-07-30T03:02:07;16.00;99.90
10419;DHT22;5256;48.728;9.140;2023-07-30T03:04:33;16.00;99.90
10419;DHT22;5256;48.728;9.140;2023-07-30T03:06:59;15.90;99.90
10419;DHT22;5256;48.728;9.140;2023-07-30T03:09:25;15.90;99.90
10419;DHT22;5256;48.728;9.140;2023-07-30T03:11:50;15.90;99.90
10419;DHT22;5256;48.728;9.140;2023-07-30T03:14:16;15.90;99.90
10419;DHT22;5256;48.728;9.140;2023-07-30T03:16:48;15.90;99.90
10419;DHT22;5256;48.728;9.140;2023-07-30T03:19:14;15.80;99.90
10419;DHT22;5256;48.728;9.140;2023-07-30T03:21:40;15.70;99.90
10419;DHT22;5256;48.728;9.140;2023-07-30T03:24:05;15.60;99.90
10419;DHT22;5256;48.728;9.140;2023-07-30T03:26:31;15.50;99.90
10419;DHT22;5256;48.728;9.140;2023-07-30T03:28:56;15.40;99.90
10419;DHT22;5256;48.728;9.140;2023-07-30T03:31:22;15.40;99.90
10419;DHT22;5256;48.728;9.140;2023-07-30T03:33:47;15.40;99.90
10419;DHT22;5256;48.728;9.140;2023-07-30T03:36:13;15.50;99.90
10419;DHT22;5256;48.728;9.140;2023-07-30T03:38:40;15.50;99.90
10419;DHT22;5256;48.728;9.140;2023-07-30T03:41:05;15.60;99.90
10419;DHT22;5256;48.728;9.140;2023-07-30T03:43:32;15.70;99.90
10419;DHT22;5256;48.728;9.140;2023-07-30T03:45:58;15.70;99.90
10419;DHT22;5256;48.728;9.140;2023-07-30T03:48:23;15.70;99.90
10419;DHT22;5256;48.728;9.140;2023-07-30T03:50:49;15.70;99.90
10419;DHT22;5256;48.728;9.140;2023-07-30T03:53:14;15.90;99.90
10419;DHT22;5256;48.728;9.140;2023-07-30T03:55:40;15.90;99.90
10419;DHT22;5256;48.728;9.140;2023-07-30T03:58:06;15.90;99.90
10419;DHT22;5256;48.728;9.140;2023-07-30T04:00:31;15.90;99.90
10419;DHT22;5256;48.728;9.140;2023-07-30T04:02:57;15.90;99.90
10419;DHT22;5256;48.728;9.140;2023-07-30T04:05:23;16.00;99.90
10419;DHT22;5256;48.728;9.140;2023-07-30T04:07:49;16.10;99.90
10419;DHT22;5256;48.728;9.140;2023-07-30T04:10:15;16.10;99.90
10419;DHT22;5256;48.728;9.140;2023-07-30T04:12:40;16.10;99.90
10419;DHT22;5256;48.728;9.140;2023-07-30T04:15:06;16.00;99.90
10419;DHT22;5256;48.728;9.140;2023-07-30T04:17:32;16.00;99.90
10419;DHT22;5256;48.728;9.140;2023-07-30T04:19:57;16.00;99.90
10419;DHT22;5256;48.728;9.140;2023-07-30T04:22:23;16.00;99.90
10419;DHT22;5256;48.728;9.140;2023-07-30T04:24:48;16.00;99.90
10419;DHT22;5256;48.728;9.140;2023-07-30T04:27:14;15.90;99.90
10419;DHT22;5256;48.728;9.140;2023-07-30T04:29:39;15.90;99.90
10419;DHT22;5256;48.728;9.140;2023-07-30T04:32:05;15.90;99.90
10419;DHT22;5256;48.728;9.140;2023-07-30T04:34:31;15.90;99.90
10419;DHT22;5256;48.728;9.140;2023-07-30T04:36:57;15.90;99.90
10419;DHT22;5256;48.728;9.140;2023-07-30T04:39:22;16.00;99.90
10419;DHT22;5256;48.728;9.140;2023-07-30T04:41:48;16.00;99.90
10419;DHT22;5256;48.728;9.140;2023-07-30T04:44:14;16.00;99.90
10419;DHT22;5256;48.728;9.140;2023-07-30T04:46:40;16.00;99.90
10419;DHT22;5256;48.728;9.140;2023-07-30T04:49:05;16.00;99.90
10419;DHT22;5256;48.728;9.140;2023-07-30T04:51:31;16.00;99.90
10419;DHT22;5256;48.728;9.140;2023-07-30T04:53:56;16.00;99.90
10419;DHT22;5256;48.728;9.140;2023-07-30T04:56:22;16.10;99.90
10419;DHT22;5256;48.728;9.140;2023-07-30T04:58:48;16.10;99.90
10419;DHT22;5256;48.728;9.140;2023-07-30T05:01:13;16.10;99.90
10419;DHT22;5256;48.728;9.140;2023-07-30T05:03:39;16.10;99.90
10419;DHT22;5256;48.728;9.140;2023-07-30T05:06:05;16.20;99.90
10419;DHT22;5256;48.728;9.140;2023-07-30T05:08:30;16.20;99.90
10419;DHT22;5256;48.728;9.140;2023-07-30T05:10:56;16.20;99.90
10419;DHT22;5256;48.728;9.140;2023-07-30T05:13:21;16.20;99.90
10419;DHT22;5256;48.728;9.140;2023-07-30T05:15:47;16.20;99.90
10419;DHT22;5256;48.728;9.140;2023-07-30T05:18:12;16.20;99.90
10419;DHT22;5256;48.728;9.140;2023-07-30T05:20:39;16.20;99.90
10419;DHT22;5256;48.728;9.140;2023-07-30T05:23:04;16.30;99.90
10419;DHT22;5256;48.728;9.140;2023-07-30T05:25:32;16.30;99.90
10419;DHT22;5256;48.728;9.140;2023-07-30T05:27:57;16.30;99.90
10419;DHT22;5256;48.728;9.140;2023-07-30T05:30:23;16.30;99.90
10419;DHT22;5256;48.728;9.140;2023-07-30T05:32:49;16.40;99.90
10419;DHT22;5256;48.728;9.140;2023-07-30T05:35:15;16.50;99.90
10419;DHT22;5256;48.728;9.140;2023-07-30T05:37:40;16.50;99.90
10419;DHT22;5256;48.728;9.140;2023-07-30T05:40:06;16.60;99.90
10419;DHT22;5256;48.728;9.140;2023-07-30T05:42:32;16.70;99.90
10419;DHT22;5256;48.728;9.140;2023-07-30T05:44:58;16.80;99.90
10419;DHT22;5256;48.728;9.140;2023-07-30T05:47:23;16.80;99.90
10419;DHT22;5256;48.728;9.140;2023-07-30T05:49:49;16.80;99.90
10419;DHT22;5256;48.728;9.140;2023-07-30T05:52:14;16.90;99.90
10419;DHT22;5256;48.728;9.140;2023-07-30T05:54:40;16.90;99.90
10419;DHT22;5256;48.728;9.140;2023-07-30T05:57:05;17.00;99.90
10419;DHT22;5256;48.728;9.140;2023-07-30T05:59:31;17.10;99.90
10419;DHT22;5256;48.728;9.140;2023-07-30T06:01:56;17.20;99.90
10419;DHT22;5256;48.728;9.140;2023-07-30T06:04:24;17.30;99.90
10419;DHT22;5256;48.728;9.140;2023-07-30T06:06:50;17.40;99.90
10419;DHT22;5256;48.728;9.140;2023-07-30T06:09:15;17.50;99.90
10419;DHT22;5256;48.728;9.140;2023-07-30T06:11:41;17.60;99.90
10419;DHT22;5256;48.728;9.140;2023-07-30T06:14:06;17.70;99.90
10419;DHT22;5256;48.728;9.140;2023-07-30T06:16:32;17.70;99.90
10419;DHT22;5256;48.728;9.140;2023-07-30T06:18:57;17.80;99.90
10419;DHT22;5256;48.728;9.140;2023-07-30T06:21:23;17.70;99.90
10419;DHT22;5256;48.728;9.140;2023-07-30T06:23:48;17.70;99.90
10419;DHT22;5256;48.728;9.140;2023-07-30T06:26:14;17.70;99.90
10419;DHT22;5256;48.728;9.140;2023-07-30T06:28:39;17.80;99.90
10419;DHT22;5256;48.728;9.140;2023-07-30T06:31:05;17.80;99.90
10419;DHT22;5256;48.728;9.140;2023-07-30T06:33:30;17.90;99.90
10419;DHT22;5256;48.728;9.140;2023-07-30T06:35:56;17.90;99.90
10419;DHT22;5256;48.728;9.140;2023-07-30T06:38:21;18.10;99.90
10419;DHT22;5256;48.728;9.140;2023-07-30T06:40:47;18.30;99.90
10419;DHT22;5256;48.728;9.140;2023-07-30T06:43:12;18.60;99.90
10419;DHT22;5256;48.728;9.140;2023-07-30T06:45:38;18.80;99.90
10419;DHT22;5256;48.728;9.140;2023-07-30T06:48:04;18.90;99.90
10419;DHT22;5256;48.728;9.140;2023-07-30T06:50:29;19.10;99.90
10419;DHT22;5256;48.728;9.140;2023-07-30T06:52:55;19.70;99.90
10419;DHT22;5256;48.728;9.140;2023-07-30T06:55:20;20.20;99.90
10419;DHT22;5256;48.728;9.140;2023-07-30T06:57:46;20.50;99.90
10419;DHT22;5256;48.728;9.140;2023-07-30T07:00:12;20.20;99.90
10419;DHT22;5256;48.728;9.140;2023-07-30T07:02:37;19.90;99.90
10419;DHT22;5256;48.728;9.140;2023-07-30T07:05:03;19.60;99.90
10419;DHT22;5256;48.728;9.140;2023-07-30T07:07:30;19.40;99.90
10419;DHT22;5256;48.728;9.140;2023-07-30T07:09:56;19.30;99.90
10419;DHT22;5256;48.728;9.140;2023-07-30T07:12:21;19.10;99.90
10419;DHT22;5256;48.728;9.140;2023-07-30T07:14:47;18.90;99.90
10419;DHT22;5256;48.728;9.140;2023-07-30T07:17:12;18.90;99.90
10419;DHT22;5256;48.728;9.140;2023-07-30T07:19:38;18.80;99.90
10419;DHT22;5256;48.728;9.140;2023-07-30T07:22:04;18.60;99.90
10419;DHT22;5256;48.728;9.140;2023-07-30T07:24:30;18.60;99.90
10419;DHT22;5256;48.728;9.140;2023-07-30T07:26:56;18.50;99.90
10419;DHT22;5256;48.728;9.140;2023-07-30T07:29:22;18.50;99.90
10419;DHT22;5256;48.728;9.140;2023-07-30T07:31:48;18.40;99.90
10419;DHT22;5256;48.728;9.140;2023-07-30T07:34:13;18.20;99.90
10419;DHT22;5256;48.728;9.140;2023-07-30T07:36:39;18.00;99.90
10419;DHT22;5256;48.728;9.140;2023-07-30T07:39:05;17.80;99.90
10419;DHT22;5256;48.728;9.140;2023-07-30T07:41:30;17.80;99.90
10419;DHT22;5256;48.728;9.140;2023-07-30T07:43:56;17.70;99.90
10419;DHT22;5256;48.728;9.140;2023-07-30T07:46:22;17.70;99.90
10419;DHT22;5256;48.728;9.140;2023-07-30T07:48:47;17.70;99.90
10419;DHT22;5256;48.728;9.140;2023-07-30T07:51:13;17.70;99.90
10419;DHT22;5256;48.728;9.140;2023-07-30T07:53:39;17.80;99.90
10419;DHT22;5256;48.728;9.140;2023-07-30T07:56:05;17.80;99.90
10419;DHT22;5256;48.728;9.140;2023-07-30T07:58:31;17.80;99.90
10419;DHT22;5256;48.728;9.140;2023-07-30T08:00:57;17.90;99.90
10419;DHT22;5256;48.728;9.140;2023-07-30T08:03:23;18.10;99.90
10419;DHT22;5256;48.728;9.140;2023-07-30T08:05:49;18.20;99.90
10419;DHT22;5256;48.728;9.140;2023-07-30T08:08:15;18.30;99.90
10419;DHT22;5256;48.728;9.140;2023-07-30T08:10:41;18.50;99.90
10419;DHT22;5256;48.728;9.140;2023-07-30T08:13:10;18.80;99.90
10419;DHT22;5256;48.728;9.140;2023-07-30T08:15:36;19.00;99.90
10419;DHT22;5256;48.728;9.140;2023-07-30T08:18:01;19.20;99.90
10419;DHT22;5256;48.728;9.140;2023-07-30T08:20:27;19.40;99.90
10419;DHT22;5256;48.728;9.140;2023-07-30T08:22:52;19.60;99.90
10419;DHT22;5256;48.728;9.140;2023-07-30T08:25:18;19.80;99.90
10419;DHT22;5256;48.728;9.140;2023-07-30T08:27:44;20.30;99.90
10419;DHT22;5256;48.728;9.140;2023-07-30T08:30:09;21.00;99.90
10419;DHT22;5256;48.728;9.140;2023-07-30T08:32:36;21.50;99.90
10419;DHT22;5256;48.728;9.140;2023-07-30T08:35:01;21.80;99.90
10419;DHT22;5256;48.728;9.140;2023-07-30T08:37:27;22.00;99.90
10419;DHT22;5256;48.728;9.140;2023-07-30T08:39:52;22.00;99.90
10419;DHT22;5256;48.728;9.140;2023-07-30T08:42:18;22.10;99.90
10419;DHT22;5256;48.728;9.140;2023-07-30T08:44:43;22.30;99.90
10419;DHT22;5256;48.728;9.140;2023-07-30T08:47:10;22.40;99.90
10419;DHT22;5256;48.728;9.140;2023-07-30T08:49:36;22.20;99.90
10419;DHT22;5256;48.728;9.140;2023-07-30T08:52:02;22.10;99.90
10419;DHT22;5256;48.728;9.140;2023-07-30T08:54:31;21.80;99.90
10419;DHT22;5256;48.728;9.140;2023-07-30T08:56:57;21.60;99.90
10419;DHT22;5256;48.728;9.140;2023-07-30T08:59:24;21.90;99.90
10419;DHT22;5256;48.728;9.140;2023-07-30T09:01:54;22.20;99.90
10419;DHT22;5256;48.728;9.140;2023-07-30T09:04:21;22.50;99.90
10419;DHT22;5256;48.728;9.140;2023-07-30T09:06:50;22.80;99.90
10419;DHT22;5256;48.728;9.140;2023-07-30T09:09:15;22.80;99.90
10419;DHT22;5256;48.728;9.140;2023-07-30T09:11:41;22.90;99.90
10419;DHT22;5256;48.728;9.140;2023-07-30T09:14:07;23.10;99.90
10419;DHT22;5256;48.728;9.140;2023-07-30T09:16:33;23.20;99.90
10419;DHT22;5256;48.728;9.140;2023-07-30T09:18:59;22.70;99.90
10419;DHT22;5256;48.728;9.140;2023-07-30T09:21:34;22.20;99.90
10419;DHT22;5256;48.728;9.140;2023-07-30T09:24:03;21.70;99.90
10419;DHT22;5256;48.728;9.140;2023-07-30T09:26:41;21.40;99.90
10419;DHT22;5256;48.728;9.140;2023-07-30T09:29:08;21.10;99.90
10419;DHT22;5256;48.728;9.140;2023-07-30T09:31:46;20.80;99.90
10419;DHT22;5256;48.728;9.140;2023-07-30T09:34:15;20.30;99.90
10419;DHT22;5256;48.728;9.140;2023-07-30T09:36:43;20.10;99.90
10419;DHT22;5256;48.728;9.140;2023-07-30T09:39:36;20.00;99.90
10419;DHT22;5256;48.728;9.140;2023-07-30T09:42:02;20.00;99.90
10419;DHT22;5256;48.728;9.140;2023-07-30T09:44:28;20.00;99.90
10419;DHT22;5256;48.728;9.140;2023-07-30T09:46:53;19.90;99.90
10419;DHT22;5256;48.728;9.140;2023-07-30T09:49:19;20.00;99.90
10419;DHT22;5256;48.728;9.140;2023-07-30T09:51:44;20.10;99.90
10419;DHT22;5256;48.728;9.140;2023-07-30T09:54:14;20.30;99.90
10419;DHT22;5256;48.728;9.140;2023-07-30T09:56:41;20.30;99.90
10419;DHT22;5256;48.728;9.140;2023-07-30T09:59:08;20.60;99.90
10419;DHT22;5256;48.728;9.140;2023-07-30T10:01:46;20.90;99.90
10419;DHT22;5256;48.728;9.140;2023-07-30T10:04:13;21.10;99.90
10419;DHT22;5256;48.728;9.140;2023-07-30T10:06:49;21.50;99.90
10419;DHT22;5256;48.728;9.140;2023-07-30T10:09:17;21.80;99.90
10419;DHT22;5256;48.728;9.140;2023-07-30T10:11:45;22.40;99.90
10419;DHT22;5256;48.728;9.140;2023-07-30T10:14:12;22.70;99.90
10419;DHT22;5256;48.728;9.140;2023-07-30T10:16:38;22.60;99.90
10419;DHT22;5256;48.728;9.140;2023-07-30T10:19:04;22.80;99.90
10419;DHT22;5256;48.728;9.140;2023-07-30T10:21:32;23.60;99.90
10419;DHT22;5256;48.728;9.140;2023-07-30T10:24:02;23.30;99.90
10419;DHT22;5256;48.728;9.140;2023-07-30T10:26:30;23.50;99.90
10419;DHT22;5256;48.728;9.140;2023-07-30T10:29:12;23.50;99.90
10419;DHT22;5256;48.728;9.140;2023-07-30T10:31:42;23.60;99.90
10419;DHT22;5256;48.728;9.140;2023-07-30T10:34:09;23.30;99.90
10419;DHT22;5256;48.728;9.140;2023-07-30T10:36:49;23.40;99.90
10419;DHT22;5256;48.728;9.140;2023-07-30T10:39:21;23.70;99.90
10419;DHT22;5256;48.728;9.140;2023-07-30T10:41:54;23.80;99.90
10419;DHT22;5256;48.728;9.140;2023-07-30T10:44:26;24.10;99.90
10419;DHT22;5256;48.728;9.140;2023-07-30T10:46:57;24.00;99.90
10419;DHT22;5256;48.728;9.140;2023-07-30T10:49:23;24.00;99.90
10419;DHT22;5256;48.728;9.140;2023-07-30T10:51:50;24.20;99.90
10419;DHT22;5256;48.728;9.140;2023-07-30T10:54:16;24.40;99.90
10419;DHT22;5256;48.728;9.140;2023-07-30T10:56:42;24.40;99.90
10419;DHT22;5256;48.728;9.140;2023-07-30T10:59:08;24.10;99.90
10419;DHT22;5256;48.728;9.140;2023-07-30T11:01:42;24.10;99.90
10419;DHT22;5256;48.728;9.140;2023-07-30T11:04:17;24.30;99.90
10419;DHT22;5256;48.728;9.140;2023-07-30T11:06:48;24.50;99.90
10419;DHT22;5256;48.728;9.140;2023-07-30T11:09:25;24.70;99.90
10419;DHT22;5256;48.728;9.140;2023-07-30T11:11:52;24.50;99.90
10419;DHT22;5256;48.728;9.140;2023-07-30T11:14:19;24.40;99.90
10419;DHT22;5256;48.728;9.140;2023-07-30T11:16:53;24.10;99.90
10419;DHT22;5256;48.728;9.140;2023-07-30T11:19:20;23.70;99.90
10419;DHT22;5256;48.728;9.140;2023-07-30T11:21:50;23.40;99.90
10419;DHT22;5256;48.728;9.140;2023-07-30T11:24:16;23.40;99.90
10419;DHT22;5256;48.728;9.140;2023-07-30T11:26:42;23.50;99.90
10419;DHT22;5256;48.728;9.140;2023-07-30T11:29:18;23.00;99.90
10419;DHT22;5256;48.728;9.140;2023-07-30T11:31:44;22.70;99.90
10419;DHT22;5256;48.728;9.140;2023-07-30T11:34:10;22.70;99.90
10419;DHT22;5256;48.728;9.140;2023-07-30T11:36:36;22.60;99.90
10419;DHT22;5256;48.728;9.140;2023-07-30T11:39:03;22.30;99.90
10419;DHT22;5256;48.728;9.140;2023-07-30T11:41:29;22.20;99.90
10419;DHT22;5256;48.728;9.140;2023-07-30T11:43:55;22.10;99.90
10419;DHT22;5256;48.728;9.140;2023-07-30T11:46:21;21.90;99.90
10419;DHT22;5256;48.728;9.140;2023-07-30T11:48:49;21.60;99.90
10419;DHT22;5256;48.728;9.140;2023-07-30T11:51:28;21.50;99.90
10419;DHT22;5256;48.728;9.140;2023-07-30T11:53:56;21.20;99.90
10419;DHT22;5256;48.728;9.140;2023-07-30T11:56:30;21.10;99.90
10419;DHT22;5256;48.728;9.140;2023-07-30T11:59:00;21.10;99.90
10419;DHT22;5256;48.728;9.140;2023-07-30T12:01:29;21.20;99.90
10419;DHT22;5256;48.728;9.140;2023-07-30T12:03:58;21.20;99.90
10419;DHT22;5256;48.728;9.140;2023-07-30T12:06:37;21.40;99.90
10419;DHT22;5256;48.728;9.140;2023-07-30T12:09:16;21.70;99.90
10419;DHT22;5256;48.728;9.140;2023-07-30T12:14:24;21.40;99.90
10419;DHT22;5256;48.728;9.140;2023-07-30T12:16:55;21.30;99.90
10419;DHT22;5256;48.728;9.140;2023-07-30T12:19:21;21.20;99.90
10419;DHT22;5256;48.728;9.140;2023-07-30T12:21:46;21.20;99.90
10419;DHT22;5256;48.728;9.140;2023-07-30T12:24:12;21.30;99.90
10419;DHT22;5256;48.728;9.140;2023-07-30T12:26:38;21.60;99.90
10419;DHT22;5256;48.728;9.140;2023-07-30T12:29:03;21.60;99.90
10419;DHT22;5256;48.728;9.140;2023-07-30T12:31:29;21.70;99.90
10419;DHT22;5256;48.728;9.140;2023-07-30T12:33:55;21.70;99.90
10419;DHT22;5256;48.728;9.140;2023-07-30T12:36:20;21.80;99.90
10419;DHT22;5256;48.728;9.140;2023-07-30T12:38:46;21.80;99.90
10419;DHT22;5256;48.728;9.140;2023-07-30T12:41:11;21.80;99.90
10419;DHT22;5256;48.728;9.140;2023-07-30T12:43:37;21.90;99.90
10419;DHT22;5256;48.728;9.140;2023-07-30T12:46:02;22.10;99.90
10419;DHT22;5256;48.728;9.140;2023-07-30T12:48:28;21.90;99.90
10419;DHT22;5256;48.728;9.140;2023-07-30T12:50:54;21.80;99.90
10419;DHT22;5256;48.728;9.140;2023-07-30T12:53:20;21.60;99.90
10419;DHT22;5256;48.728;9.140;2023-07-30T12:55:45;21.60;99.90
10419;DHT22;5256;48.728;9.140;2023-07-30T12:58:11;21.50;99.90
10419;DHT22;5256;48.728;9.140;2023-07-30T13:00:37;21.40;99.90
10419;DHT22;5256;48.728;9.140;2023-07-30T13:03:03;21.40;99.90
10419;DHT22;5256;48.728;9.140;2023-07-30T13:05:28;21.30;99.90
10419;DHT22;5256;48.728;9.140;2023-07-30T13:07:54;21.40;99.90
10419;DHT22;5256;48.728;9.140;2023-07-30T13:10:19;21.70;99.90
10419;DHT22;5256;48.728;9.140;2023-07-30T13:12:45;22.00;99.90
10419;DHT22;5256;48.728;9.140;2023-07-30T13:15:11;22.30;99.90
10419;DHT22;5256;48.728;9.140;2023-07-30T13:17:37;22.40;99.90
10419;DHT22;5256;48.728;9.140;2023-07-30T13:20:03;22.50;99.90
10419;DHT22;5256;48.728;9.140;2023-07-30T13:22:29;22.60;99.90
10419;DHT22;5256;48.728;9.140;2023-07-30T13:24:55;22.60;99.90
10419;DHT22;5256;48.728;9.140;2023-07-30T13:27:20;22.40;99.90
10419;DHT22;5256;48.728;9.140;2023-07-30T13:29:46;22.20;99.90
10419;DHT22;5256;48.728;9.140;2023-07-30T13:32:13;22.10;99.90
10419;DHT22;5256;48.728;9.140;2023-07-30T13:34:39;21.90;99.90
10419;DHT22;5256;48.728;9.140;2023-07-30T13:37:04;21.70;99.90
10419;DHT22;5256;48.728;9.140;2023-07-30T13:39:30;21.80;99.90
10419;DHT22;5256;48.728;9.140;2023-07-30T13:41:55;21.60;99.90
10419;DHT22;5256;48.728;9.140;2023-07-30T13:44:21;21.70;99.90
10419;DHT22;5256;48.728;9.140;2023-07-30T13:46:46;22.00;99.90
10419;DHT22;5256;48.728;9.140;2023-07-30T13:49:12;22.10;99.90
10419;DHT22;5256;48.728;9.140;2023-07-30T13:51:37;22.20;99.90
10419;DHT22;5256;48.728;9.140;2023-07-30T13:54:03;22.30;99.90
10419;DHT22;5256;48.728;9.140;2023-07-30T13:56:30;22.40;99.90
10419;DHT22;5256;48.728;9.140;2023-07-30T13:58:56;22.60;99.90
10419;DHT22;5256;48.728;9.140;2023-07-30T14:01:22;22.80;99.90
10419;DHT22;5256;48.728;9.140;2023-07-30T14:03:47;22.70;99.90
10419;DHT22;5256;48.728;9.140;2023-07-30T14:06:13;22.90;99.90
10419;DHT22;5256;48.728;9.140;2023-07-30T14:08:39;23.00;99.90
10419;DHT22;5256;48.728;9.140;2023-07-30T14:11:04;22.80;99.90
10419;DHT22;5256;48.728;9.140;2023-07-30T14:13:30;22.60;99.90
10419;DHT22;5256;48.728;9.140;2023-07-30T14:15:56;22.60;99.90
10419;DHT22;5256;48.728;9.140;2023-07-30T14:18:23;22.90;99.90
10419;DHT22;5256;48.728;9.140;2023-07-30T14:20:49;23.50;99.90
10419;DHT22;5256;48.728;9.140;2023-07-30T14:23:15;24.20;99.90
10419;DHT22;5256;48.728;9.140;2023-07-30T14:25:40;24.50;99.90
10419;DHT22;5256;48.728;9.140;2023-07-30T14:28:06;24.20;99.90
10419;DHT22;5256;48.728;9.140;2023-07-30T14:30:31;24.40;99.90
10419;DHT22;5256;48.728;9.140;2023-07-30T14:32:57;24.90;99.90
10419;DHT22;5256;48.728;9.140;2023-07-30T14:35:23;25.20;99.90
10419;DHT22;5256;48.728;9.140;2023-07-30T14:37:49;25.20;99.90
10419;DHT22;5256;48.728;9.140;2023-07-30T14:40:14;25.00;99.90
10419;DHT22;5256;48.728;9.140;2023-07-30T14:42:40;24.70;99.90
10419;DHT22;5256;48.728;9.140;2023-07-30T14:45:06;25.10;99.90
10419;DHT22;5256;48.728;9.140;2023-07-30T14:47:32;25.40;99.90
10419;DHT22;5256;48.728;9.140;2023-07-30T14:49:58;25.40;99.90
10419;DHT22;5256;48.728;9.140;2023-07-30T14:52:25;25.40;99.90
10419;DHT22;5256;48.728;9.140;2023-07-30T14:54:51;25.20;99.90
10419;DHT22;5256;48.728;9.140;2023-07-30T14:57:17;25.20;99.90
10419;DHT22;5256;48.728;9.140;2023-07-30T14:59:42;25.30;99.90
10419;DHT22;5256;48.728;9.140;2023-07-30T15:02:08;25.00;99.90
10419;DHT22;5256;48.728;9.140;2023-07-30T15:04:34;24.80;99.90
10419;DHT22;5256;48.728;9.140;2023-07-30T15:06:59;24.70;99.90
10419;DHT22;5256;48.728;9.140;2023-07-30T15:09:25;25.00;99.90
10419;DHT22;5256;48.728;9.140;2023-07-30T15:11:50;25.10;99.90
10419;DHT22;5256;48.728;9.140;2023-07-30T15:14:16;24.90;99.90
10419;DHT22;5256;48.728;9.140;2023-07-30T15:16:41;25.10;99.90
10419;DHT22;5256;48.728;9.140;2023-07-30T15:19:07;25.10;99.90
10419;DHT22;5256;48.728;9.140;2023-07-30T15:21:32;24.60;99.80
10419;DHT22;5256;48.728;9.140;2023-07-30T15:23:58;24.70;99.90
10419;DHT22;5256;48.728;9.140;2023-07-30T15:26:24;24.00;99.90
10419;DHT22;5256;48.728;9.140;2023-07-30T15:28:53;24.30;99.00
10419;DHT22;5256;48.728;9.140;2023-07-30T15:31:25;24.60;99.70
10419;DHT22;5256;48.728;9.140;2023-07-30T15:33:51;25.10;99.00
10419;DHT22;5256;48.728;9.140;2023-07-30T15:36:18;25.20;98.90
10419;DHT22;5256;48.728;9.140;2023-07-30T15:38:44;25.10;98.30
10419;DHT22;5256;48.728;9.140;2023-07-30T15:41:09;25.00;98.60
10419;DHT22;5256;48.728;9.140;2023-07-30T15:43:35;25.10;98.70
10419;DHT22;5256;48.728;9.140;2023-07-30T15:46:01;25.30;98.20